createdAt,value
2022-12-11T00:02:16.896Z,5.93
2022-12-11T00:05:40.513Z,8.27
2022-12-11T00:09:04.488Z,4.05
2022-12-11T00:12:31.025Z,3.75
2022-12-11T00:15:53.261Z,3.95
2022-12-11T00:19:15.021Z,5.07
2022-12-11T00:22:37.509Z,3.15
2022-12-11T00:25:59.322Z,1.70
2022-12-11T00:29:22.385Z,2.50
2022-12-11T00:32:44.479Z,1.20
2022-12-11T00:36:12.743Z,6.75
2022-12-11T00:39:34.499Z,2.83
2022-12-11T00:42:56.108Z,4.20
2022-12-11T00:46:19.476Z,3.72
2022-12-11T00:49:45.182Z,4.53
2022-12-11T00:53:11.538Z,3.78
2022-12-11T00:56:33.578Z,2.25
2022-12-11T00:59:55.716Z,5.80
2022-12-11T01:03:19.372Z,3.72
2022-12-11T01:06:41.271Z,5.65
2022-12-11T01:10:20.654Z,3.95
2022-12-11T01:13:44.509Z,4.10
2022-12-11T01:17:06.370Z,5.43
2022-12-11T01:20:29.861Z,4.90
2022-12-11T01:23:51.959Z,2.97
2022-12-11T01:27:13.522Z,7.35
2022-12-11T01:30:35.964Z,4.45
2022-12-11T01:33:58.237Z,3.63
2022-12-11T01:37:21.592Z,2.70
2022-12-11T01:40:53.205Z,7.03
2022-12-11T01:44:48.032Z,5.45
2022-12-11T01:48:12.775Z,3.85
2022-12-11T01:51:38.630Z,2.25
2022-12-11T01:55:02.519Z,3.13
2022-12-11T01:58:28.841Z,2.15
2022-12-11T02:01:56.318Z,2.05
2022-12-11T02:05:21.259Z,2.85
2022-12-11T02:08:42.887Z,2.10
2022-12-11T02:12:16.614Z,2.78
2022-12-11T02:15:48.646Z,2.13
2022-12-11T02:19:23.094Z,2.00
2022-12-11T02:23:26.110Z,3.67
2022-12-11T02:27:09.930Z,2.67
2022-12-11T02:30:34.700Z,5.53
2022-12-11T02:34:02.511Z,4.30
2022-12-11T02:37:31.554Z,5.55
2022-12-11T02:40:56.786Z,6.25
2022-12-11T02:44:24.703Z,3.80
2022-12-11T02:47:50.499Z,4.55
2022-12-11T02:51:15.562Z,4.68
2022-12-11T02:54:40.821Z,4.80
2022-12-11T02:58:08.816Z,3.47
2022-12-11T03:01:31.081Z,5.10
2022-12-11T03:04:54.554Z,4.18
2022-12-11T03:08:17.999Z,3.70
2022-12-11T03:11:39.644Z,3.53
2022-12-11T03:15:04.220Z,2.83
2022-12-11T03:18:32.320Z,3.60
2022-12-11T03:22:01.766Z,3.47
2022-12-11T03:25:27.613Z,4.18
2022-12-11T03:28:52.427Z,4.95
2022-12-11T03:32:20.028Z,5.25
2022-12-11T03:35:44.267Z,3.25
2022-12-11T03:39:11.891Z,5.32
2022-12-11T03:42:36.851Z,3.83
2022-12-11T03:46:00.747Z,3.17
2022-12-11T03:49:27.435Z,3.53
2022-12-11T03:52:51.122Z,5.80
2022-12-11T03:56:21.528Z,8.98
2022-12-11T03:59:43.426Z,5.95
2022-12-11T04:03:18.047Z,3.35
2022-12-11T04:06:39.773Z,6.55
2022-12-11T04:10:01.989Z,3.72
2022-12-11T04:13:25.307Z,3.15
2022-12-11T04:16:45.855Z,3.72
2022-12-11T04:20:26.618Z,3.60
2022-12-11T04:24:05.648Z,3.55
2022-12-11T04:27:45.551Z,4.10
2022-12-11T04:31:13.015Z,4.88
2022-12-11T04:34:34.971Z,3.63
2022-12-11T04:37:56.842Z,4.03
2022-12-11T04:41:18.688Z,2.85
2022-12-11T04:44:40.466Z,4.35
2022-12-11T04:48:03.801Z,4.53
2022-12-11T04:51:26.039Z,3.90
2022-12-11T04:54:48.187Z,4.15
2022-12-11T04:58:10.186Z,3.67
2022-12-11T05:01:32.286Z,5.72
2022-12-11T05:04:55.822Z,3.60
2022-12-11T05:08:17.640Z,3.85
2022-12-11T05:11:40.133Z,3.78
2022-12-11T05:15:02.629Z,4.63
2022-12-11T05:18:24.680Z,3.45
2022-12-11T05:21:47.916Z,7.70
2022-12-11T05:25:11.277Z,5.38
2022-12-11T05:28:34.775Z,8.15
2022-12-11T05:31:56.514Z,6.30
2022-12-11T05:35:18.680Z,5.20
2022-12-11T05:38:41.681Z,4.72
2022-12-11T05:42:03.718Z,6.18
2022-12-11T05:45:25.509Z,5.05
2022-12-11T05:48:49.982Z,4.90
2022-12-11T05:52:12.044Z,7.68
2022-12-11T05:55:37.459Z,9.60
2022-12-11T05:59:00.075Z,7.10
2022-12-11T06:02:21.863Z,9.02
2022-12-11T06:05:44.319Z,13.15
2022-12-11T06:09:07.641Z,9.27
2022-12-11T06:12:31.216Z,10.38
2022-12-11T06:15:53.013Z,7.40
2022-12-11T06:19:18.681Z,7.70
2022-12-11T06:22:40.436Z,6.07
2022-12-11T06:26:04.499Z,6.82
2022-12-11T06:29:27.709Z,3.95
2022-12-11T06:32:49.821Z,7.88
2022-12-11T06:36:13.585Z,5.28
2022-12-11T06:39:38.337Z,7.50
2022-12-11T06:43:00.075Z,8.00
2022-12-11T06:46:23.553Z,6.38
2022-12-11T06:49:45.046Z,6.97
2022-12-11T06:53:06.792Z,9.60
2022-12-11T06:56:54.036Z,5.32
2022-12-11T07:00:17.217Z,6.43
2022-12-11T07:03:40.291Z,6.18
2022-12-11T07:07:03.246Z,8.35
2022-12-11T07:10:25.604Z,6.13
2022-12-11T07:13:47.774Z,7.28
2022-12-11T07:17:09.609Z,9.18
2022-12-11T07:20:33.016Z,10.85
2022-12-11T07:23:54.836Z,5.63
2022-12-11T07:27:16.815Z,8.35
2022-12-11T07:30:39.655Z,10.27
2022-12-11T07:34:03.937Z,10.50
2022-12-11T07:37:27.996Z,9.02
2022-12-11T07:40:49.722Z,8.30
2022-12-11T07:44:13.029Z,8.85
2022-12-11T07:47:35.339Z,6.40
2022-12-11T07:50:57.013Z,8.73
2022-12-11T07:54:22.670Z,6.22
2022-12-11T07:57:44.853Z,7.68
2022-12-11T08:01:07.516Z,7.75
2022-12-11T08:04:29.531Z,6.20
2022-12-11T08:07:51.128Z,6.20
2022-12-11T08:11:18.207Z,5.50
2022-12-11T08:14:39.824Z,6.38
2022-12-11T08:18:01.598Z,7.53
2022-12-11T08:21:25.435Z,4.53
2022-12-11T08:24:48.302Z,8.20
2022-12-11T08:28:11.506Z,9.38
2022-12-11T08:31:33.367Z,6.15
2022-12-11T08:34:55.369Z,7.05
2022-12-11T08:38:20.953Z,8.80
2022-12-11T08:41:47.536Z,5.38
2022-12-11T08:45:12.067Z,6.80
2022-12-11T08:48:34.061Z,10.10
2022-12-11T08:51:55.996Z,7.88
2022-12-11T08:55:17.784Z,7.63
2022-12-11T08:58:40.278Z,7.22
2022-12-11T09:02:03.265Z,7.15
2022-12-11T09:05:24.963Z,7.72
2022-12-11T09:08:52.291Z,9.38
2022-12-11T09:12:15.202Z,10.95
2022-12-11T09:15:38.308Z,9.32
2022-12-11T09:19:02.177Z,12.40
2022-12-11T09:22:24.208Z,13.13
2022-12-11T09:25:46.248Z,11.65
2022-12-11T09:29:08.190Z,14.80
2022-12-11T09:32:30.659Z,12.25
2022-12-11T09:36:00.230Z,19.02
2022-12-11T09:39:22.506Z,21.70
2022-12-11T09:42:59.548Z,16.27
2022-12-11T09:46:24.707Z,18.60
2022-12-11T09:49:48.948Z,16.73
2022-12-11T09:53:17.615Z,14.60
2022-12-11T09:56:47.740Z,14.40
2022-12-11T10:00:18.915Z,11.77
2022-12-11T10:03:53.123Z,16.40
2022-12-11T10:07:19.729Z,22.25
2022-12-11T10:10:47.470Z,19.90
2022-12-11T10:14:19.995Z,19.30
2022-12-11T10:17:44.776Z,20.50
2022-12-11T10:21:07.557Z,31.52
2022-12-11T10:28:22.600Z,18.30
2022-12-11T10:31:51.569Z,17.48
2022-12-11T10:35:21.063Z,15.77
2022-12-11T10:38:46.039Z,36.53
2022-12-11T10:42:17.754Z,18.67
2022-12-11T10:45:41.708Z,18.13
2022-12-11T10:49:03.632Z,20.95
2022-12-11T10:52:28.039Z,14.75
2022-12-11T10:55:50.945Z,18.88
2022-12-11T10:59:25.246Z,14.02
2022-12-11T11:02:48.664Z,22.77
2022-12-11T11:06:18.709Z,12.50
2022-12-11T11:09:43.869Z,12.38
2022-12-11T11:13:05.911Z,24.13
2022-12-11T11:16:27.960Z,12.73
2022-12-11T11:19:51.368Z,17.90
2022-12-11T11:23:16.450Z,11.40
2022-12-11T11:27:11.573Z,15.23
2022-12-11T11:30:27.075Z,11.45
2022-12-11T11:33:57.199Z,16.20
2022-12-11T11:37:31.565Z,10.32
2022-12-11T11:41:05.625Z,8.48
2022-12-11T11:44:37.675Z,7.60
2022-12-11T11:48:11.462Z,15.30
2022-12-11T11:51:41.174Z,9.93
2022-12-11T11:55:10.904Z,5.03
2022-12-11T11:58:41.282Z,5.43
2022-12-11T12:02:02.862Z,10.68
2022-12-11T12:05:33.079Z,7.78
2022-12-11T12:09:01.057Z,8.35
2022-12-11T12:12:37.200Z,10.57
2022-12-11T12:16:04.991Z,8.93
2022-12-11T12:19:44.512Z,13.93
2022-12-11T12:23:37.518Z,17.90
2022-12-11T12:27:13.436Z,15.18
2022-12-11T12:30:59.280Z,14.40
2022-12-11T12:34:33.836Z,16.27
2022-12-11T12:38:01.585Z,20.13
2022-12-11T12:41:29.843Z,23.08
2022-12-11T12:44:59.883Z,16.00
2022-12-11T12:48:26.281Z,19.27
2022-12-11T12:51:48.933Z,17.65
2022-12-11T12:55:23.124Z,26.35
2022-12-11T12:58:49.182Z,26.77
2022-12-11T13:02:19.931Z,16.80
2022-12-11T13:05:45.961Z,21.85
2022-12-11T13:09:18.651Z,16.60
2022-12-11T13:12:47.759Z,18.58
2022-12-11T13:16:26.928Z,21.55
2022-12-11T13:19:50.040Z,20.67
2022-12-11T13:23:20.543Z,14.05
2022-12-11T13:26:42.645Z,21.52
2022-12-11T13:30:22.310Z,21.85
2022-12-11T13:33:47.283Z,18.65
2022-12-11T13:37:26.045Z,15.82
2022-12-11T13:40:55.000Z,22.88
2022-12-11T13:44:23.000Z,21.13
2022-12-11T13:47:46.260Z,19.17
2022-12-11T13:51:08.771Z,20.85
2022-12-11T13:54:31.955Z,16.80
2022-12-11T13:57:55.276Z,19.80
2022-12-11T14:01:22.246Z,14.95
2022-12-11T14:04:44.516Z,16.17
2022-12-11T14:08:10.754Z,16.88
2022-12-11T14:11:36.886Z,19.52
2022-12-11T14:15:03.345Z,19.40
2022-12-11T14:18:28.557Z,19.88
2022-12-11T14:21:58.548Z,19.65
2022-12-11T14:25:25.066Z,21.67
2022-12-11T14:28:47.106Z,19.52
2022-12-11T14:32:10.723Z,16.65
2022-12-11T14:35:38.880Z,20.73
2022-12-11T14:39:05.001Z,20.03
2022-12-11T14:42:31.851Z,22.10
2022-12-11T14:45:59.365Z,27.95
2022-12-11T14:49:27.581Z,19.73
2022-12-11T14:52:53.687Z,22.57
2022-12-11T14:56:20.620Z,23.17
2022-12-11T14:59:47.504Z,18.83
2022-12-11T15:03:23.821Z,24.83
2022-12-11T15:06:49.126Z,21.23
2022-12-11T15:10:24.389Z,17.48
2022-12-11T15:13:52.764Z,15.20
2022-12-11T15:17:16.406Z,21.48
2022-12-11T15:20:38.864Z,17.25
2022-12-11T15:24:04.887Z,19.75
2022-12-11T15:27:33.619Z,17.17
2022-12-11T15:30:58.127Z,19.25
2022-12-11T15:34:24.239Z,18.45
2022-12-11T15:37:54.261Z,21.77
2022-12-11T15:41:21.240Z,19.30
2022-12-11T15:44:43.776Z,23.27
2022-12-11T15:48:06.222Z,19.52
2022-12-11T15:51:29.278Z,24.23
2022-12-11T15:54:51.313Z,19.25
2022-12-11T15:58:20.007Z,22.05
2022-12-11T16:01:42.168Z,23.35
2022-12-11T16:05:03.907Z,21.75
2022-12-11T16:08:26.414Z,16.60
2022-12-11T16:11:48.179Z,15.05
2022-12-11T16:15:17.498Z,17.60
2022-12-11T16:18:43.512Z,14.07
2022-12-11T16:22:05.799Z,16.52
2022-12-11T16:25:31.830Z,12.23
2022-12-11T16:28:56.035Z,18.83
2022-12-11T16:32:19.392Z,13.10
2022-12-11T16:35:41.876Z,13.50
2022-12-11T16:39:04.130Z,11.77
2022-12-11T16:42:26.161Z,13.95
2022-12-11T16:45:48.116Z,12.32
2022-12-11T16:49:11.484Z,11.57
2022-12-11T16:52:33.664Z,10.88
2022-12-11T16:55:55.625Z,9.60
2022-12-11T16:59:17.559Z,12.77
2022-12-11T17:02:39.550Z,11.57
2022-12-11T17:06:02.919Z,14.25
2022-12-11T17:09:28.713Z,10.27
2022-12-11T17:12:50.888Z,7.88
2022-12-11T17:16:14.900Z,11.57
2022-12-11T17:19:37.392Z,10.75
2022-12-11T17:23:02.192Z,12.98
2022-12-11T17:26:25.398Z,16.73
2022-12-11T17:29:49.607Z,10.65
2022-12-11T17:33:12.362Z,8.95
2022-12-11T17:36:36.645Z,8.10
2022-12-11T17:39:59.746Z,12.73
2022-12-11T17:43:21.545Z,11.52
2022-12-11T17:46:43.290Z,10.15
2022-12-11T17:50:07.039Z,16.80
2022-12-11T17:53:28.762Z,11.88
2022-12-11T17:56:53.911Z,8.35
2022-12-11T18:00:17.561Z,13.02
2022-12-11T18:03:39.328Z,11.07
2022-12-11T18:07:01.603Z,10.15
2022-12-11T18:10:26.009Z,12.95
2022-12-11T18:13:50.251Z,12.43
2022-12-11T18:17:12.389Z,16.70
2022-12-11T18:20:36.029Z,12.35
2022-12-11T18:23:58.129Z,13.32
2022-12-11T18:27:19.835Z,8.32
2022-12-11T18:30:43.311Z,9.23
2022-12-11T18:34:06.233Z,11.00
2022-12-11T18:37:28.350Z,8.55
2022-12-11T18:40:50.329Z,10.45
2022-12-11T18:44:12.323Z,6.95
2022-12-11T18:47:35.882Z,10.25
2022-12-11T18:50:57.673Z,12.40
2022-12-11T18:54:19.935Z,13.98
2022-12-11T18:57:42.088Z,13.75
2022-12-11T19:01:08.446Z,9.05
2022-12-11T19:04:32.098Z,11.13
2022-12-11T19:07:54.248Z,9.77
2022-12-11T19:11:17.290Z,10.45
2022-12-11T19:14:39.135Z,13.45
2022-12-11T19:18:01.204Z,12.25
2022-12-11T19:21:24.850Z,8.93
2022-12-11T19:24:46.813Z,9.30
2022-12-11T19:28:08.603Z,10.27
2022-12-11T19:31:32.870Z,9.05
2022-12-11T19:34:55.199Z,9.35
2022-12-11T19:38:18.498Z,7.75
2022-12-11T19:41:40.675Z,9.27
2022-12-11T19:45:04.187Z,17.67
2022-12-11T19:48:26.300Z,8.50
2022-12-11T19:51:48.466Z,8.98
2022-12-11T19:55:15.090Z,9.20
2022-12-11T19:58:37.281Z,8.07
2022-12-11T20:01:59.163Z,6.57
2022-12-11T20:05:21.215Z,11.75
2022-12-11T20:08:45.666Z,10.95
2022-12-11T20:12:10.635Z,9.90
2022-12-11T20:15:33.031Z,7.55
2022-12-11T20:18:55.938Z,8.63
2022-12-11T20:22:18.046Z,10.95
2022-12-11T20:25:40.531Z,10.38
2022-12-11T20:29:07.330Z,8.80
2022-12-11T20:32:30.206Z,6.78
2022-12-11T20:35:52.139Z,8.85
2022-12-11T20:39:15.184Z,6.78
2022-12-11T20:42:37.169Z,6.03
2022-12-11T20:46:01.324Z,6.88
2022-12-11T20:49:23.392Z,6.25
2022-12-11T20:52:45.483Z,8.52
2022-12-11T20:56:11.204Z,10.05
2022-12-11T20:59:33.259Z,8.95
2022-12-11T21:02:57.375Z,9.52
2022-12-11T21:06:20.489Z,7.68
2022-12-11T21:09:42.420Z,8.82
2022-12-11T21:13:04.696Z,6.40
2022-12-11T21:16:26.829Z,6.22
2022-12-11T21:19:50.622Z,6.78
2022-12-11T21:23:12.850Z,5.50
2022-12-11T21:26:35.008Z,8.60
2022-12-11T21:29:57.433Z,8.52
2022-12-11T21:33:19.284Z,8.05
2022-12-11T21:36:44.080Z,12.85
2022-12-11T21:40:06.903Z,12.27
2022-12-11T21:43:28.892Z,12.45
2022-12-11T21:46:50.917Z,9.55
2022-12-11T21:50:13.003Z,11.52
2022-12-11T21:53:35.909Z,11.95
2022-12-11T21:56:57.991Z,12.40
2022-12-11T22:00:20.264Z,12.63
2022-12-11T22:03:42.306Z,13.98
2022-12-11T22:07:03.854Z,14.57
2022-12-11T22:10:27.291Z,15.93
2022-12-11T22:13:49.485Z,14.75
2022-12-11T22:17:11.351Z,13.52
2022-12-11T22:20:33.521Z,16.83
2022-12-11T22:23:55.578Z,19.13
2022-12-11T22:27:23.482Z,19.15
2022-12-11T22:30:48.013Z,14.48
2022-12-11T22:34:09.769Z,23.17
2022-12-11T22:37:32.155Z,16.25
2022-12-11T22:40:55.198Z,16.20
2022-12-11T22:44:20.633Z,22.88
2022-12-11T22:47:42.589Z,15.60
2022-12-11T22:51:06.534Z,13.73
2022-12-11T22:54:28.428Z,15.80
2022-12-11T22:57:50.181Z,13.07
2022-12-11T23:01:16.684Z,17.20
2022-12-11T23:04:38.774Z,17.17
2022-12-11T23:08:00.638Z,12.60
2022-12-11T23:11:26.466Z,14.00
2022-12-11T23:14:48.143Z,12.00
2022-12-11T23:18:11.468Z,14.90
2022-12-11T23:21:36.766Z,16.00
2022-12-11T23:24:58.650Z,12.60
2022-12-11T23:28:21.065Z,13.38
2022-12-11T23:31:43.046Z,14.85
2022-12-11T23:35:07.066Z,12.65
2022-12-11T23:38:28.974Z,13.88
2022-12-11T23:41:53.844Z,13.18
2022-12-11T23:45:15.666Z,15.63
2022-12-11T23:48:37.611Z,14.57
2022-12-11T23:52:01.221Z,11.70
2022-12-11T23:55:25.529Z,8.75
2022-12-11T23:58:47.511Z,10.77
